sensor_id;sensor_type;location;lat;lon;timestamp;pressure;altitude;pressure_sealevel;temperature;humidity
11314;BME280;5712;48.858;9.206;2022-09-16T00:00:07;97613.88;;;14.64;100.00
11314;BME280;5712;48.858;9.206;2022-09-16T00:02:35;97613.88;;;14.64;100.00
11314;BME280;5712;48.858;9.206;2022-09-16T00:05:01;97617.25;;;14.66;100.00
11314;BME280;5712;48.858;9.206;2022-09-16T00:07:30;97617.25;;;14.66;100.00
11314;BME280;5712;48.858;9.206;2022-09-16T00:09:56;97607.97;;;14.70;100.00
11314;BME280;5712;48.858;9.206;2022-09-16T00:12:23;97612.31;;;14.71;100.00
11314;BME280;5712;48.858;9.206;2022-09-16T00:14:51;97610.38;;;14.73;100.00
11314;BME280;5712;48.858;9.206;2022-09-16T00:17:18;97615.69;;;14.73;100.00
11314;BME280;5712;48.858;9.206;2022-09-16T00:19:44;97615.69;;;14.73;100.00
11314;BME280;5712;48.858;9.206;2022-09-16T00:22:12;97608.97;;;14.69;100.00
11314;BME280;5712;48.858;9.206;2022-09-16T00:24:40;97614.16;;;14.70;100.00
11314;BME280;5712;48.858;9.206;2022-09-16T00:27:06;97610.63;;;14.70;100.00
11314;BME280;5712;48.858;9.206;2022-09-16T00:29:33;97616.13;;;14.68;100.00
11314;BME280;5712;48.858;9.206;2022-09-16T00:32:00;97610.53;;;14.62;100.00
11314;BME280;5712;48.858;9.206;2022-09-16T00:34:27;97607.44;;;14.57;100.00
11314;BME280;5712;48.858;9.206;2022-09-16T00:36:54;97607.34;;;14.49;100.00
11314;BME280;5712;48.858;9.206;2022-09-16T00:39:20;97600.50;;;14.37;100.00
11314;BME280;5712;48.858;9.206;2022-09-16T00:41:48;97599.22;;;14.41;100.00
11314;BME280;5712;48.858;9.206;2022-09-16T00:44:52;97599.94;;;14.43;100.00
11314;BME280;5712;48.858;9.206;2022-09-16T00:47:23;97604.69;;;14.49;100.00
11314;BME280;5712;48.858;9.206;2022-09-16T00:49:53;97608.56;;;14.54;100.00
11314;BME280;5712;48.858;9.206;2022-09-16T00:52:21;97607.44;;;14.57;100.00
11314;BME280;5712;48.858;9.206;2022-09-16T00:54:48;97611.78;;;14.58;100.00
11314;BME280;5712;48.858;9.206;2022-09-16T00:57:16;97607.19;;;14.60;100.00
11314;BME280;5712;48.858;9.206;2022-09-16T00:59:47;97611.38;;;14.62;100.00
11314;BME280;5712;48.858;9.206;2022-09-16T01:02:17;97611.50;;;14.61;100.00
11314;BME280;5712;48.858;9.206;2022-09-16T01:04:47;97614.31;;;14.59;100.00
11314;BME280;5712;48.858;9.206;2022-09-16T01:07:17;97610.81;;;14.59;100.00
11314;BME280;5712;48.858;9.206;2022-09-16T01:09:46;97616.28;;;14.57;100.00
11314;BME280;5712;48.858;9.206;2022-09-16T01:12:13;97621.44;;;14.59;100.00
11314;BME280;5712;48.858;9.206;2022-09-16T01:14:41;97615.31;;;14.58;100.00
11314;BME280;5712;48.858;9.206;2022-09-16T01:17:32;97617.09;;;14.58;100.00
11314;BME280;5712;48.858;9.206;2022-09-16T01:26:12;97612.78;;;14.57;100.00
11314;BME280;5712;48.858;9.206;2022-09-16T01:29:00;97610.00;;;14.49;100.00
11314;BME280;5712;48.858;9.206;2022-09-16T01:31:39;97608.47;;;14.37;100.00
11314;BME280;5712;48.858;9.206;2022-09-16T01:34:15;97611.16;;;14.27;100.00
11314;BME280;5712;48.858;9.206;2022-09-16T01:36:48;97613.50;;;14.30;100.00
11314;BME280;5712;48.858;9.206;2022-09-16T01:39:27;97609.03;;;14.31;100.00
11314;BME280;5712;48.858;9.206;2022-09-16T01:42:14;97619.56;;;14.23;100.00
11314;BME280;5712;48.858;9.206;2022-09-16T01:44:51;97612.25;;;14.06;100.00
11314;BME280;5712;48.858;9.206;2022-09-16T01:47:29;97617.94;;;13.92;100.00
11314;BME280;5712;48.858;9.206;2022-09-16T01:50:02;97617.13;;;13.82;100.00
11314;BME280;5712;48.858;9.206;2022-09-16T01:52:39;97623.00;;;13.76;100.00
11314;BME280;5712;48.858;9.206;2022-09-16T01:55:10;97608.84;;;13.66;100.00
11314;BME280;5712;48.858;9.206;2022-09-16T01:57:46;97606.06;;;13.67;100.00
11314;BME280;5712;48.858;9.206;2022-09-16T02:00:14;97617.78;;;13.65;100.00
11314;BME280;5712;48.858;9.206;2022-09-16T02:02:47;97612.19;;;13.58;100.00
11314;BME280;5712;48.858;9.206;2022-09-16T02:05:18;97610.47;;;13.48;100.00
11314;BME280;5712;48.858;9.206;2022-09-16T02:07:52;97603.78;;;13.44;100.00
11314;BME280;5712;48.858;9.206;2022-09-16T02:10:24;97605.44;;;13.35;100.00
11314;BME280;5712;48.858;9.206;2022-09-16T02:13:04;97612.09;;;13.30;100.00
11314;BME280;5712;48.858;9.206;2022-09-16T02:15:32;97608.31;;;13.23;100.00
11314;BME280;5712;48.858;9.206;2022-09-16T02:18:04;97597.72;;;13.23;100.00
11314;BME280;5712;48.858;9.206;2022-09-16T02:20:37;97602.31;;;13.21;100.00
11314;BME280;5712;48.858;9.206;2022-09-16T02:23:09;97592.94;;;13.17;100.00
11314;BME280;5712;48.858;9.206;2022-09-16T02:25:38;97592.38;;;13.13;100.00
11314;BME280;5712;48.858;9.206;2022-09-16T02:28:11;97601.84;;;13.06;100.00
11314;BME280;5712;48.858;9.206;2022-09-16T02:30:42;97601.72;;;13.08;100.00
11314;BME280;5712;48.858;9.206;2022-09-16T02:33:11;97607.28;;;13.05;100.00
11314;BME280;5712;48.858;9.206;2022-09-16T02:35:40;97602.69;;;13.07;100.00
11314;BME280;5712;48.858;9.206;2022-09-16T02:38:14;97601.44;;;13.11;100.00
11314;BME280;5712;48.858;9.206;2022-09-16T02:40:47;97598.38;;;13.15;100.00
11314;BME280;5712;48.858;9.206;2022-09-16T02:43:16;97602.00;;;13.14;100.00
11314;BME280;5712;48.858;9.206;2022-09-16T02:45:47;97597.66;;;13.04;100.00
11314;BME280;5712;48.858;9.206;2022-09-16T02:48:22;97600.59;;;13.01;100.00
11314;BME280;5712;48.858;9.206;2022-09-16T02:51:01;97598.88;;;13.00;100.00
11314;BME280;5712;48.858;9.206;2022-09-16T02:53:42;97603.00;;;12.93;100.00
11314;BME280;5712;48.858;9.206;2022-09-16T02:56:14;97595.78;;;12.95;100.00
11314;BME280;5712;48.858;9.206;2022-09-16T02:58:44;97600.88;;;12.87;100.00
11314;BME280;5712;48.858;9.206;2022-09-16T03:01:12;97593.75;;;12.78;100.00
11314;BME280;5712;48.858;9.206;2022-09-16T03:03:40;97596.28;;;12.79;100.00
11314;BME280;5712;48.858;9.206;2022-09-16T03:06:16;97599.88;;;12.78;100.00
11314;BME280;5712;48.858;9.206;2022-09-16T03:08:43;97600.72;;;12.79;100.00
11314;BME280;5712;48.858;9.206;2022-09-16T03:11:21;97603.38;;;12.79;100.00
11314;BME280;5712;48.858;9.206;2022-09-16T03:13:53;97603.81;;;12.84;100.00
11314;BME280;5712;48.858;9.206;2022-09-16T03:16:30;97600.75;;;12.88;100.00
11314;BME280;5712;48.858;9.206;2022-09-16T03:19:10;97600.72;;;12.99;100.00
11314;BME280;5712;48.858;9.206;2022-09-16T03:21:46;97595.97;;;13.03;100.00
11314;BME280;5712;48.858;9.206;2022-09-16T03:24:21;97599.59;;;13.02;100.00
11314;BME280;5712;48.858;9.206;2022-09-16T03:26:56;97595.16;;;13.12;100.00
11314;BME280;5712;48.858;9.206;2022-09-16T03:29:32;97595.19;;;13.21;100.00
11314;BME280;5712;48.858;9.206;2022-09-16T03:32:06;97605.00;;;13.30;100.00
11314;BME280;5712;48.858;9.206;2022-09-16T03:34:40;97596.63;;;13.35;100.00
11314;BME280;5712;48.858;9.206;2022-09-16T03:37:12;97600.28;;;13.43;100.00
11314;BME280;5712;48.858;9.206;2022-09-16T03:39:41;97589.25;;;13.48;100.00
11314;BME280;5712;48.858;9.206;2022-09-16T03:42:08;97589.00;;;13.51;100.00
11314;BME280;5712;48.858;9.206;2022-09-16T03:44:37;97593.44;;;13.50;100.00
11314;BME280;5712;48.858;9.206;2022-09-16T03:47:05;97589.00;;;13.51;100.00
11314;BME280;5712;48.858;9.206;2022-09-16T03:49:32;97593.88;;;13.55;100.00
11314;BME280;5712;48.858;9.206;2022-09-16T03:52:00;97593.47;;;13.60;100.00
11314;BME280;5712;48.858;9.206;2022-09-16T03:54:29;97587.16;;;13.61;100.00
11314;BME280;5712;48.858;9.206;2022-09-16T03:56:56;97589.28;;;13.67;100.00
11314;BME280;5712;48.858;9.206;2022-09-16T03:59:25;97597.25;;;13.67;100.00
11314;BME280;5712;48.858;9.206;2022-09-16T04:01:52;97589.44;;;13.65;100.00
11314;BME280;5712;48.858;9.206;2022-09-16T04:04:19;97595.69;;;13.64;100.00
11314;BME280;5712;48.858;9.206;2022-09-16T04:06:46;97588.44;;;13.66;100.00
11314;BME280;5712;48.858;9.206;2022-09-16T04:09:14;97593.88;;;13.65;100.00
11314;BME280;5712;48.858;9.206;2022-09-16T04:11:41;97585.94;;;13.65;100.00
11314;BME280;5712;48.858;9.206;2022-09-16T04:14:08;97594.75;;;13.65;100.00
11314;BME280;5712;48.858;9.206;2022-09-16T04:16:35;97587.59;;;13.66;100.00
11314;BME280;5712;48.858;9.206;2022-09-16T04:19:02;97579.75;;;13.64;100.00
11314;BME280;5712;48.858;9.206;2022-09-16T04:21:29;97580.63;;;13.65;100.00
11314;BME280;5712;48.858;9.206;2022-09-16T04:23:55;97580.34;;;13.68;100.00
11314;BME280;5712;48.858;9.206;2022-09-16T04:26:23;97584.69;;;13.69;100.00
11314;BME280;5712;48.858;9.206;2022-09-16T04:28:51;97575.59;;;13.71;100.00
11314;BME280;5712;48.858;9.206;2022-09-16T04:31:19;97580.19;;;13.69;100.00
11314;BME280;5712;48.858;9.206;2022-09-16T04:33:46;97573.06;;;13.70;100.00
11314;BME280;5712;48.858;9.206;2022-09-16T04:36:14;97581.72;;;13.72;100.00
11314;BME280;5712;48.858;9.206;2022-09-16T04:38:42;97578.38;;;13.70;100.00
11314;BME280;5712;48.858;9.206;2022-09-16T04:41:10;97581.19;;;13.68;100.00
11314;BME280;5712;48.858;9.206;2022-09-16T04:43:39;97570.97;;;13.64;100.00
11314;BME280;5712;48.858;9.206;2022-09-16T04:46:06;97568.88;;;13.58;100.00
11314;BME280;5712;48.858;9.206;2022-09-16T04:48:33;97576.94;;;13.47;100.00
11314;BME280;5712;48.858;9.206;2022-09-16T04:51:01;97570.22;;;13.43;100.00
11314;BME280;5712;48.858;9.206;2022-09-16T04:53:29;97570.50;;;13.40;100.00
11314;BME280;5712;48.858;9.206;2022-09-16T04:56:02;97575.53;;;13.43;100.00
11314;BME280;5712;48.858;9.206;2022-09-16T04:58:29;97585.34;;;13.42;100.00
11314;BME280;5712;48.858;9.206;2022-09-16T05:01:02;97583.38;;;13.44;100.00
11314;BME280;5712;48.858;9.206;2022-09-16T05:03:29;97584.47;;;13.42;100.00
11314;BME280;5712;48.858;9.206;2022-09-16T05:06:03;97593.72;;;13.38;100.00
11314;BME280;5712;48.858;9.206;2022-09-16T05:08:30;97590.06;;;13.29;100.00
11314;BME280;5712;48.858;9.206;2022-09-16T05:11:02;97585.97;;;13.25;100.00
11314;BME280;5712;48.858;9.206;2022-09-16T05:13:28;97597.56;;;13.15;100.00
11314;BME280;5712;48.858;9.206;2022-09-16T05:16:00;97593.91;;;13.16;100.00
11314;BME280;5712;48.858;9.206;2022-09-16T05:18:26;97581.31;;;13.08;100.00
11314;BME280;5712;48.858;9.206;2022-09-16T05:20:56;97586.50;;;13.10;100.00
11314;BME280;5712;48.858;9.206;2022-09-16T05:23:22;97574.06;;;13.01;100.00
11314;BME280;5712;48.858;9.206;2022-09-16T05:25:49;97571.66;;;12.98;100.00
11314;BME280;5712;48.858;9.206;2022-09-16T05:28:16;97571.19;;;12.93;100.00
11314;BME280;5712;48.858;9.206;2022-09-16T05:30:42;97580.13;;;12.92;100.00
11314;BME280;5712;48.858;9.206;2022-09-16T05:33:10;97575.91;;;12.89;100.00
11314;BME280;5712;48.858;9.206;2022-09-16T05:35:37;97576.03;;;12.88;100.00
11314;BME280;5712;48.858;9.206;2022-09-16T05:38:04;97576.88;;;12.88;100.00
11314;BME280;5712;48.858;9.206;2022-09-16T05:40:30;97573.91;;;12.82;100.00
11314;BME280;5712;48.858;9.206;2022-09-16T05:42:57;97576.97;;;12.77;100.00
11314;BME280;5712;48.858;9.206;2022-09-16T05:45:23;97572.78;;;12.75;100.00
11314;BME280;5712;48.858;9.206;2022-09-16T05:47:50;97580.94;;;12.83;100.00
11314;BME280;5712;48.858;9.206;2022-09-16T05:50:18;97578.16;;;12.94;100.00
11314;BME280;5712;48.858;9.206;2022-09-16T05:52:45;97587.16;;;13.02;100.00
11314;BME280;5712;48.858;9.206;2022-09-16T05:55:12;97586.91;;;13.05;100.00
11314;BME280;5712;48.858;9.206;2022-09-16T05:57:38;97587.72;;;13.06;100.00
11314;BME280;5712;48.858;9.206;2022-09-16T06:00:06;97585.81;;;13.08;100.00
11314;BME280;5712;48.858;9.206;2022-09-16T06:02:33;97594.47;;;13.10;100.00
11314;BME280;5712;48.858;9.206;2022-09-16T06:04:59;97600.03;;;13.07;100.00
11314;BME280;5712;48.858;9.206;2022-09-16T06:07:27;97597.81;;;13.12;100.00
11314;BME280;5712;48.858;9.206;2022-09-16T06:09:54;97596.69;;;13.14;100.00
11314;BME280;5712;48.858;9.206;2022-09-16T06:12:21;97598.66;;;13.12;100.00
11314;BME280;5712;48.858;9.206;2022-09-16T06:14:47;97600.88;;;13.07;100.00
11314;BME280;5712;48.858;9.206;2022-09-16T06:17:14;97600.34;;;12.93;100.00
11314;BME280;5712;48.858;9.206;2022-09-16T06:19:41;97592.09;;;12.86;100.00
11314;BME280;5712;48.858;9.206;2022-09-16T06:22:07;97596.19;;;12.70;100.00
11314;BME280;5712;48.858;9.206;2022-09-16T06:24:35;97597.31;;;12.67;100.00
11314;BME280;5712;48.858;9.206;2022-09-16T06:27:02;97604.03;;;12.71;100.00
11314;BME280;5712;48.858;9.206;2022-09-16T06:29:29;97598.41;;;12.65;100.00
11314;BME280;5712;48.858;9.206;2022-09-16T06:31:55;97603.72;;;12.65;100.00
11314;BME280;5712;48.858;9.206;2022-09-16T06:34:22;97592.16;;;12.66;100.00
11314;BME280;5712;48.858;9.206;2022-09-16T06:36:49;97601.06;;;12.65;100.00
11314;BME280;5712;48.858;9.206;2022-09-16T06:39:16;97607.94;;;12.67;100.00
11314;BME280;5712;48.858;9.206;2022-09-16T06:41:44;97601.31;;;12.62;100.00
11314;BME280;5712;48.858;9.206;2022-09-16T06:44:11;97606.69;;;12.51;100.00
11314;BME280;5712;48.858;9.206;2022-09-16T06:46:37;97621.25;;;12.36;100.00
11314;BME280;5712;48.858;9.206;2022-09-16T06:49:04;97618.41;;;12.28;100.00
11314;BME280;5712;48.858;9.206;2022-09-16T06:51:31;97616.88;;;12.25;100.00
11314;BME280;5712;48.858;9.206;2022-09-16T06:54:00;97618.78;;;12.23;100.00
11314;BME280;5712;48.858;9.206;2022-09-16T06:56:27;97607.59;;;12.20;100.00
11314;BME280;5712;48.858;9.206;2022-09-16T06:58:55;97610.19;;;12.10;100.00
11314;BME280;5712;48.858;9.206;2022-09-16T07:01:23;97607.03;;;12.16;100.00
11314;BME280;5712;48.858;9.206;2022-09-16T07:03:51;97617.03;;;12.13;100.00
11314;BME280;5712;48.858;9.206;2022-09-16T07:06:19;97614.50;;;12.11;100.00
11314;BME280;5712;48.858;9.206;2022-09-16T07:08:47;97614.34;;;12.24;100.00
11314;BME280;5712;48.858;9.206;2022-09-16T07:11:15;97619.31;;;12.38;100.00
11314;BME280;5712;48.858;9.206;2022-09-16T07:13:43;97625.59;;;12.37;100.00
11314;BME280;5712;48.858;9.206;2022-09-16T07:16:14;97623.56;;;12.29;100.00
11314;BME280;5712;48.858;9.206;2022-09-16T07:18:41;97624.81;;;12.25;100.00
11314;BME280;5712;48.858;9.206;2022-09-16T07:21:10;97622.28;;;12.24;100.00
11314;BME280;5712;48.858;9.206;2022-09-16T07:23:38;97618.78;;;12.23;100.00
11314;BME280;5712;48.858;9.206;2022-09-16T07:26:07;97614.34;;;12.24;100.00
11314;BME280;5712;48.858;9.206;2022-09-16T07:28:35;97618.16;;;12.31;100.00
11314;BME280;5712;48.858;9.206;2022-09-16T07:31:03;97616.41;;;12.41;100.00
11314;BME280;5712;48.858;9.206;2022-09-16T07:33:34;97629.38;;;12.44;100.00
11314;BME280;5712;48.858;9.206;2022-09-16T07:36:02;97628.75;;;12.51;100.00
11314;BME280;5712;48.858;9.206;2022-09-16T07:38:30;97626.84;;;12.63;100.00
11314;BME280;5712;48.858;9.206;2022-09-16T07:41:03;97616.81;;;12.66;100.00
11314;BME280;5712;48.858;9.206;2022-09-16T07:43:29;97626.72;;;12.64;100.00
11314;BME280;5712;48.858;9.206;2022-09-16T07:45:57;97623.44;;;12.51;100.00
11314;BME280;5712;48.858;9.206;2022-09-16T07:48:23;97626.50;;;12.47;100.00
11314;BME280;5712;48.858;9.206;2022-09-16T07:50:55;97634.22;;;12.39;100.00
11314;BME280;5712;48.858;9.206;2022-09-16T07:53:23;97642.28;;;12.28;100.00
11314;BME280;5712;48.858;9.206;2022-09-16T07:55:51;97629.44;;;12.33;100.00
11314;BME280;5712;48.858;9.206;2022-09-16T07:58:18;97622.88;;;12.48;100.00
11314;BME280;5712;48.858;9.206;2022-09-16T08:00:45;97616.59;;;12.69;100.00
11314;BME280;5712;48.858;9.206;2022-09-16T08:03:13;97621.13;;;12.88;100.00
11314;BME280;5712;48.858;9.206;2022-09-16T08:05:40;97625.59;;;13.08;100.00
11314;BME280;5712;48.858;9.206;2022-09-16T08:08:08;97628.84;;;13.21;100.00
11314;BME280;5712;48.858;9.206;2022-09-16T08:10:35;97631.63;;;13.19;100.00
11314;BME280;5712;48.858;9.206;2022-09-16T08:13:02;97634.84;;;13.23;100.00
11314;BME280;5712;48.858;9.206;2022-09-16T08:15:29;97635.31;;;13.28;100.00
11314;BME280;5712;48.858;9.206;2022-09-16T08:17:55;97644.84;;;13.40;100.00
11314;BME280;5712;48.858;9.206;2022-09-16T08:20:22;97651.56;;;13.44;100.00
11314;BME280;5712;48.858;9.206;2022-09-16T08:22:49;97657.81;;;13.43;100.00
11314;BME280;5712;48.858;9.206;2022-09-16T08:25:18;97646.63;;;13.39;100.00
11314;BME280;5712;48.858;9.206;2022-09-16T08:27:44;97658.56;;;13.45;100.00
11314;BME280;5712;48.858;9.206;2022-09-16T08:30:11;97663.56;;;13.48;100.00
11314;BME280;5712;48.858;9.206;2022-09-16T08:32:38;97652.41;;;13.44;100.00
11314;BME280;5712;48.858;9.206;2022-09-16T08:35:06;97666.22;;;13.48;100.00
11314;BME280;5712;48.858;9.206;2022-09-16T08:37:33;97654.38;;;13.52;100.00
11314;BME280;5712;48.858;9.206;2022-09-16T08:40:00;97656.06;;;13.53;100.00
11314;BME280;5712;48.858;9.206;2022-09-16T08:42:41;97663.91;;;13.64;100.00
11314;BME280;5712;48.858;9.206;2022-09-16T08:45:28;97659.19;;;13.77;100.00
11314;BME280;5712;48.858;9.206;2022-09-16T08:48:12;97664.81;;;13.93;100.00
11314;BME280;5712;48.858;9.206;2022-09-16T08:50:45;97672.38;;;14.07;100.00
11314;BME280;5712;48.858;9.206;2022-09-16T08:53:16;97669.84;;;14.15;100.00
11314;BME280;5712;48.858;9.206;2022-09-16T08:55:47;97674.75;;;14.10;100.00
11314;BME280;5712;48.858;9.206;2022-09-16T08:58:18;97673.50;;;14.14;100.00
11314;BME280;5712;48.858;9.206;2022-09-16T09:00:47;97671.28;;;14.19;100.00
11314;BME280;5712;48.858;9.206;2022-09-16T09:03:24;97660.38;;;14.22;100.00
11314;BME280;5712;48.858;9.206;2022-09-16T09:05:55;97670.72;;;14.15;100.00
11314;BME280;5712;48.858;9.206;2022-09-16T09:08:38;97674.91;;;14.08;100.00
11314;BME280;5712;48.858;9.206;2022-09-16T09:11:14;97670.56;;;14.17;100.00
11314;BME280;5712;48.858;9.206;2022-09-16T09:13:55;97669.31;;;14.40;100.00
11314;BME280;5712;48.858;9.206;2022-09-16T09:16:32;97670.16;;;14.50;100.00
11314;BME280;5712;48.858;9.206;2022-09-16T09:19:12;97675.22;;;14.62;100.00
11314;BME280;5712;48.858;9.206;2022-09-16T09:21:49;97665.69;;;14.60;100.00
11314;BME280;5712;48.858;9.206;2022-09-16T09:24:30;97663.03;;;14.60;100.00
11314;BME280;5712;48.858;9.206;2022-09-16T09:27:05;97657.56;;;14.52;100.00
11314;BME280;5712;48.858;9.206;2022-09-16T09:29:49;97657.56;;;14.52;100.00
11314;BME280;5712;48.858;9.206;2022-09-16T09:32:28;97660.22;;;14.52;100.00
11314;BME280;5712;48.858;9.206;2022-09-16T09:35:10;97661.91;;;14.53;100.00
11314;BME280;5712;48.858;9.206;2022-09-16T09:37:57;97657.41;;;14.63;100.00
11314;BME280;5712;48.858;9.206;2022-09-16T09:40:31;97658.50;;;14.70;100.00
11314;BME280;5712;48.858;9.206;2022-09-16T09:43:05;97660.16;;;14.80;100.00
11314;BME280;5712;48.858;9.206;2022-09-16T09:45:38;97656.13;;;14.86;100.00
11314;BME280;5712;48.858;9.206;2022-09-16T09:48:14;97662.25;;;14.96;100.00
11314;BME280;5712;48.858;9.206;2022-09-16T09:50:44;97664.03;;;15.05;100.00
11314;BME280;5712;48.858;9.206;2022-09-16T09:53:14;97658.25;;;15.19;100.00
11314;BME280;5712;48.858;9.206;2022-09-16T09:55:43;97664.69;;;15.35;100.00
11314;BME280;5712;48.858;9.206;2022-09-16T09:58:18;97669.97;;;15.45;100.00
11314;BME280;5712;48.858;9.206;2022-09-16T10:00:48;97660.66;;;15.49;100.00
11314;BME280;5712;48.858;9.206;2022-09-16T10:03:18;97664.03;;;15.51;100.00
11314;BME280;5712;48.858;9.206;2022-09-16T10:05:45;97657.41;;;15.55;100.00
11314;BME280;5712;48.858;9.206;2022-09-16T10:08:22;97655.94;;;15.43;100.00
11314;BME280;5712;48.858;9.206;2022-09-16T10:10:52;97655.84;;;15.25;100.00
11314;BME280;5712;48.858;9.206;2022-09-16T10:13:20;97660.25;;;15.07;100.00
11314;BME280;5712;48.858;9.206;2022-09-16T10:15:52;97664.22;;;14.84;100.00
11314;BME280;5712;48.858;9.206;2022-09-16T10:18:23;97662.03;;;14.61;100.00
11314;BME280;5712;48.858;9.206;2022-09-16T10:20:58;97663.44;;;14.55;100.00
11314;BME280;5712;48.858;9.206;2022-09-16T10:23:26;97665.13;;;14.47;100.00
11314;BME280;5712;48.858;9.206;2022-09-16T10:26:03;97662.47;;;14.47;100.00
11314;BME280;5712;48.858;9.206;2022-09-16T10:28:30;97658.97;;;14.46;100.00
11314;BME280;5712;48.858;9.206;2022-09-16T10:30:59;97667.94;;;14.55;100.00
11314;BME280;5712;48.858;9.206;2022-09-16T10:33:28;97661.50;;;14.57;100.00
11314;BME280;5712;48.858;9.206;2022-09-16T10:35:58;97658.66;;;14.59;100.00
11314;BME280;5712;48.858;9.206;2022-09-16T10:38:34;97662.75;;;14.53;100.00
11314;BME280;5712;48.858;9.206;2022-09-16T10:41:06;97666.25;;;14.54;100.00
11314;BME280;5712;48.858;9.206;2022-09-16T10:43:36;97660.38;;;14.50;100.00
11314;BME280;5712;48.858;9.206;2022-09-16T10:46:05;97655.63;;;14.54;100.00
11314;BME280;5712;48.858;9.206;2022-09-16T10:48:33;97645.53;;;14.57;100.00
11314;BME280;5712;48.858;9.206;2022-09-16T10:51:02;97649.97;;;14.66;100.00
11314;BME280;5712;48.858;9.206;2022-09-16T10:53:32;97652.63;;;14.76;100.00
11314;BME280;5712;48.858;9.206;2022-09-16T10:56:01;97667.84;;;14.93;100.00
11314;BME280;5712;48.858;9.206;2022-09-16T10:58:29;97668.69;;;15.03;100.00
11314;BME280;5712;48.858;9.206;2022-09-16T11:01:09;97667.38;;;15.07;100.00
11314;BME280;5712;48.858;9.206;2022-09-16T11:03:59;97668.34;;;15.15;100.00
11314;BME280;5712;48.858;9.206;2022-09-16T11:06:45;97663.56;;;15.19;100.00
11314;BME280;5712;48.858;9.206;2022-09-16T11:09:25;97668.91;;;15.09;100.00
11314;BME280;5712;48.858;9.206;2022-09-16T11:12:04;97663.75;;;15.08;100.00
11314;BME280;5712;48.858;9.206;2022-09-16T11:14:41;97664.22;;;14.94;100.00
11314;BME280;5712;48.858;9.206;2022-09-16T11:17:21;97662.53;;;14.93;100.00
11314;BME280;5712;48.858;9.206;2022-09-16T11:20:08;97662.00;;;14.89;100.00
11314;BME280;5712;48.858;9.206;2022-09-16T11:22:46;97669.25;;;14.97;100.00
11314;BME280;5712;48.858;9.206;2022-09-16T11:25:26;97675.53;;;15.05;100.00
11314;BME280;5712;48.858;9.206;2022-09-16T11:28:12;97680.97;;;15.13;100.00
11314;BME280;5712;48.858;9.206;2022-09-16T11:30:47;97676.47;;;15.14;100.00
11314;BME280;5712;48.858;9.206;2022-09-16T11:33:23;97681.94;;;15.22;100.00
11314;BME280;5712;48.858;9.206;2022-09-16T11:36:22;97673.50;;;15.36;100.00
11314;BME280;5712;48.858;9.206;2022-09-16T11:39:10;97670.25;;;15.42;96.68
11314;BME280;5712;48.858;9.206;2022-09-16T11:41:42;97676.97;;;15.46;99.41
11314;BME280;5712;48.858;9.206;2022-09-16T11:44:38;97676.38;;;15.52;98.54
11314;BME280;5712;48.858;9.206;2022-09-16T11:47:22;97662.94;;;15.44;98.50
11314;BME280;5712;48.858;9.206;2022-09-16T11:50:02;97666.00;;;15.49;100.00
11314;BME280;5712;48.858;9.206;2022-09-16T11:52:42;97670.69;;;15.64;99.55
11314;BME280;5712;48.858;9.206;2022-09-16T11:55:21;97667.75;;;15.85;96.68
11314;BME280;5712;48.858;9.206;2022-09-16T11:57:59;97663.53;;;16.09;93.64
11314;BME280;5712;48.858;9.206;2022-09-16T12:00:28;97657.75;;;16.13;91.34
11314;BME280;5712;48.858;9.206;2022-09-16T12:02:59;97655.47;;;16.18;87.62
11314;BME280;5712;48.858;9.206;2022-09-16T12:05:34;97652.88;;;16.26;86.24
11314;BME280;5712;48.858;9.206;2022-09-16T12:08:08;97645.50;;;16.38;85.42
11314;BME280;5712;48.858;9.206;2022-09-16T12:10:40;97647.94;;;16.49;83.31
11314;BME280;5712;48.858;9.206;2022-09-16T12:13:16;97639.94;;;16.66;83.87
11314;BME280;5712;48.858;9.206;2022-09-16T12:15:47;97633.53;;;16.85;80.16
11314;BME280;5712;48.858;9.206;2022-09-16T12:18:18;97642.09;;;16.96;74.11
11314;BME280;5712;48.858;9.206;2022-09-16T12:20:50;97642.81;;;16.98;75.28
11314;BME280;5712;48.858;9.206;2022-09-16T12:23:19;97633.44;;;16.94;73.42
11314;BME280;5712;48.858;9.206;2022-09-16T12:26:00;97647.00;;;17.01;76.22
11314;BME280;5712;48.858;9.206;2022-09-16T12:28:31;97640.56;;;17.11;77.70
11314;BME280;5712;48.858;9.206;2022-09-16T12:31:07;97644.41;;;17.17;79.77
11314;BME280;5712;48.858;9.206;2022-09-16T12:33:41;97637.22;;;17.09;75.18
11314;BME280;5712;48.858;9.206;2022-09-16T12:36:14;97634.06;;;16.88;76.89
11314;BME280;5712;48.858;9.206;2022-09-16T12:38:43;97638.31;;;16.73;79.34
11314;BME280;5712;48.858;9.206;2022-09-16T12:41:24;97637.25;;;16.49;79.23
11314;BME280;5712;48.858;9.206;2022-09-16T12:44:15;97633.41;;;16.43;81.34
11314;BME280;5712;48.858;9.206;2022-09-16T12:47:06;97633.84;;;16.56;80.01
11314;BME280;5712;48.858;9.206;2022-09-16T12:50:00;97629.69;;;16.79;74.81
11314;BME280;5712;48.858;9.206;2022-09-16T12:52:53;97630.16;;;17.08;72.34
11314;BME280;5712;48.858;9.206;2022-09-16T12:55:48;97633.91;;;17.15;71.82
11314;BME280;5712;48.858;9.206;2022-09-16T13:01:20;97626.53;;;17.09;71.86
11314;BME280;5712;48.858;9.206;2022-09-16T13:03:52;97622.22;;;16.91;69.16
11314;BME280;5712;48.858;9.206;2022-09-16T13:06:22;97625.00;;;16.81;69.20
11314;BME280;5712;48.858;9.206;2022-09-16T13:08:53;97625.38;;;16.86;69.96
11314;BME280;5712;48.858;9.206;2022-09-16T13:11:22;97619.72;;;16.89;69.24
11314;BME280;5712;48.858;9.206;2022-09-16T13:13:52;97601.72;;;16.91;62.39
11314;BME280;5712;48.858;9.206;2022-09-16T13:16:28;97600.34;;;16.87;67.46
11314;BME280;5712;48.858;9.206;2022-09-16T13:22:12;97595.69;;;17.23;62.87
11314;BME280;5712;48.858;9.206;2022-09-16T13:24:45;97593.22;;;17.21;66.32
11314;BME280;5712;48.858;9.206;2022-09-16T13:27:25;97595.88;;;17.21;65.92
11314;BME280;5712;48.858;9.206;2022-09-16T13:30:15;97595.53;;;17.16;67.18
11314;BME280;5712;48.858;9.206;2022-09-16T13:32:58;97591.22;;;17.31;69.38
11314;BME280;5712;48.858;9.206;2022-09-16T13:35:38;97586.94;;;17.38;65.44
11314;BME280;5712;48.858;9.206;2022-09-16T13:38:35;97590.97;;;17.42;63.04